sensor_id;sensor_type;location;lat;lon;timestamp;P1;durP1;ratioP1;P2;durP2;ratioP2
43990;SDS011;29654;50.784;20.604;2024-02-21T00:00:16;4.65;;;3.80;;
43990;SDS011;29654;50.784;20.604;2024-02-21T00:05:20;5.55;;;3.92;;
43990;SDS011;29654;50.784;20.604;2024-02-21T00:10:23;6.90;;;4.80;;
43990;SDS011;29654;50.784;20.604;2024-02-21T00:15:27;7.97;;;4.07;;
43990;SDS011;29654;50.784;20.604;2024-02-21T00:20:30;8.88;;;3.90;;
43990;SDS011;29654;50.784;20.604;2024-02-21T00:25:32;5.00;;;3.22;;
43990;SDS011;29654;50.784;20.604;2024-02-21T00:30:37;5.60;;;3.47;;
43990;SDS011;29654;50.784;20.604;2024-02-21T00:35:39;5.50;;;3.72;;
43990;SDS011;29654;50.784;20.604;2024-02-21T00:40:42;4.65;;;3.17;;
43990;SDS011;29654;50.784;20.604;2024-02-21T00:45:47;4.80;;;2.95;;
43990;SDS011;29654;50.784;20.604;2024-02-21T00:50:49;5.43;;;3.38;;
43990;SDS011;29654;50.784;20.604;2024-02-21T00:55:52;4.85;;;3.03;;
43990;SDS011;29654;50.784;20.604;2024-02-21T01:00:59;5.32;;;3.25;;
43990;SDS011;29654;50.784;20.604;2024-02-21T01:06:03;3.95;;;3.00;;
43990;SDS011;29654;50.784;20.604;2024-02-21T01:11:07;5.15;;;3.17;;
43990;SDS011;29654;50.784;20.604;2024-02-21T01:16:11;6.63;;;3.67;;
43990;SDS011;29654;50.784;20.604;2024-02-21T01:21:14;5.60;;;3.25;;
43990;SDS011;29654;50.784;20.604;2024-02-21T01:26:16;6.57;;;3.50;;
43990;SDS011;29654;50.784;20.604;2024-02-21T01:31:21;4.03;;;3.10;;
43990;SDS011;29654;50.784;20.604;2024-02-21T01:36:23;5.10;;;2.90;;
43990;SDS011;29654;50.784;20.604;2024-02-21T01:41:26;6.60;;;3.30;;
43990;SDS011;29654;50.784;20.604;2024-02-21T01:46:32;4.93;;;3.03;;
43990;SDS011;29654;50.784;20.604;2024-02-21T01:51:36;6.10;;;3.65;;
43990;SDS011;29654;50.784;20.604;2024-02-21T01:56:40;4.88;;;3.78;;
43990;SDS011;29654;50.784;20.604;2024-02-21T02:01:44;5.47;;;3.00;;
43990;SDS011;29654;50.784;20.604;2024-02-21T02:06:49;6.38;;;3.00;;
43990;SDS011;29654;50.784;20.604;2024-02-21T02:11:53;4.65;;;2.97;;
43990;SDS011;29654;50.784;20.604;2024-02-21T02:16:57;6.15;;;3.17;;
43990;SDS011;29654;50.784;20.604;2024-02-21T02:22:03;4.38;;;2.92;;
43990;SDS011;29654;50.784;20.604;2024-02-21T02:27:13;5.90;;;3.10;;
43990;SDS011;29654;50.784;20.604;2024-02-21T02:32:16;5.57;;;3.03;;
43990;SDS011;29654;50.784;20.604;2024-02-21T02:37:18;3.45;;;2.90;;
43990;SDS011;29654;50.784;20.604;2024-02-21T02:42:23;4.15;;;3.30;;
43990;SDS011;29654;50.784;20.604;2024-02-21T02:47:25;5.25;;;3.10;;
43990;SDS011;29654;50.784;20.604;2024-02-21T02:52:28;7.03;;;3.20;;
43990;SDS011;29654;50.784;20.604;2024-02-21T02:57:32;8.93;;;3.47;;
43990;SDS011;29654;50.784;20.604;2024-02-21T03:02:37;6.25;;;3.40;;
43990;SDS011;29654;50.784;20.604;2024-02-21T03:07:41;5.72;;;2.92;;
43990;SDS011;29654;50.784;20.604;2024-02-21T03:12:45;6.05;;;3.08;;
43990;SDS011;29654;50.784;20.604;2024-02-21T03:17:48;6.28;;;3.20;;
43990;SDS011;29654;50.784;20.604;2024-02-21T03:22:51;4.85;;;3.33;;
43990;SDS011;29654;50.784;20.604;2024-02-21T03:27:55;3.88;;;2.92;;
43990;SDS011;29654;50.784;20.604;2024-02-21T03:32:58;5.45;;;3.20;;
43990;SDS011;29654;50.784;20.604;2024-02-21T03:38:01;6.38;;;2.60;;
43990;SDS011;29654;50.784;20.604;2024-02-21T03:43:06;3.38;;;2.65;;
43990;SDS011;29654;50.784;20.604;2024-02-21T03:48:09;9.25;;;3.10;;
43990;SDS011;29654;50.784;20.604;2024-02-21T03:53:11;5.47;;;2.70;;
43990;SDS011;29654;50.784;20.604;2024-02-21T03:58:16;5.95;;;2.47;;
43990;SDS011;29654;50.784;20.604;2024-02-21T04:03:18;5.75;;;3.00;;
43990;SDS011;29654;50.784;20.604;2024-02-21T04:08:22;4.97;;;3.28;;
43990;SDS011;29654;50.784;20.604;2024-02-21T04:13:26;5.30;;;3.15;;
43990;SDS011;29654;50.784;20.604;2024-02-21T04:18:29;4.95;;;2.67;;
43990;SDS011;29654;50.784;20.604;2024-02-21T04:23:32;8.38;;;3.53;;
43990;SDS011;29654;50.784;20.604;2024-02-21T04:28:36;7.78;;;3.40;;
43990;SDS011;29654;50.784;20.604;2024-02-21T04:33:39;5.85;;;3.15;;
43990;SDS011;29654;50.784;20.604;2024-02-21T04:38:42;5.53;;;3.55;;
43990;SDS011;29654;50.784;20.604;2024-02-21T04:43:47;7.85;;;3.83;;
43990;SDS011;29654;50.784;20.604;2024-02-21T04:48:49;6.80;;;4.53;;
43990;SDS011;29654;50.784;20.604;2024-02-21T04:53:52;8.90;;;4.03;;
43990;SDS011;29654;50.784;20.604;2024-02-21T04:58:57;7.63;;;4.15;;
43990;SDS011;29654;50.784;20.604;2024-02-21T05:03:59;7.28;;;4.13;;
43990;SDS011;29654;50.784;20.604;2024-02-21T05:09:03;8.13;;;4.50;;
43990;SDS011;29654;50.784;20.604;2024-02-21T05:14:07;8.45;;;4.88;;
43990;SDS011;29654;50.784;20.604;2024-02-21T05:19:10;8.90;;;5.20;;
43990;SDS011;29654;50.784;20.604;2024-02-21T05:24:12;13.18;;;5.00;;
43990;SDS011;29654;50.784;20.604;2024-02-21T05:29:16;7.68;;;4.72;;
43990;SDS011;29654;50.784;20.604;2024-02-21T05:34:19;8.10;;;5.07;;
43990;SDS011;29654;50.784;20.604;2024-02-21T05:39:23;9.35;;;5.28;;
43990;SDS011;29654;50.784;20.604;2024-02-21T05:44:29;9.45;;;5.68;;
43990;SDS011;29654;50.784;20.604;2024-02-21T05:49:32;9.75;;;5.65;;
43990;SDS011;29654;50.784;20.604;2024-02-21T05:54:37;9.15;;;5.07;;
43990;SDS011;29654;50.784;20.604;2024-02-21T05:59:42;9.10;;;5.82;;
43990;SDS011;29654;50.784;20.604;2024-02-21T06:04:45;9.35;;;6.15;;
43990;SDS011;29654;50.784;20.604;2024-02-21T06:09:48;8.77;;;5.22;;
43990;SDS011;29654;50.784;20.604;2024-02-21T06:14:52;9.40;;;5.65;;
43990;SDS011;29654;50.784;20.604;2024-02-21T06:19:55;8.25;;;5.45;;
43990;SDS011;29654;50.784;20.604;2024-02-21T06:24:57;7.97;;;5.25;;
43990;SDS011;29654;50.784;20.604;2024-02-21T06:30:02;8.57;;;5.55;;
43990;SDS011;29654;50.784;20.604;2024-02-21T06:35:05;7.78;;;5.18;;
43990;SDS011;29654;50.784;20.604;2024-02-21T06:40:08;10.30;;;6.47;;
43990;SDS011;29654;50.784;20.604;2024-02-21T06:45:13;12.75;;;6.40;;
43990;SDS011;29654;50.784;20.604;2024-02-21T06:50:16;7.38;;;5.45;;
43990;SDS011;29654;50.784;20.604;2024-02-21T06:55:19;8.65;;;5.90;;
43990;SDS011;29654;50.784;20.604;2024-02-21T07:00:23;11.68;;;6.38;;
43990;SDS011;29654;50.784;20.604;2024-02-21T07:05:26;9.98;;;6.82;;
43990;SDS011;29654;50.784;20.604;2024-02-21T07:10:29;11.88;;;6.47;;
43990;SDS011;29654;50.784;20.604;2024-02-21T07:15:33;14.10;;;7.97;;
43990;SDS011;29654;50.784;20.604;2024-02-21T07:20:36;10.48;;;7.90;;
43990;SDS011;29654;50.784;20.604;2024-02-21T07:25:41;13.00;;;7.88;;
43990;SDS011;29654;50.784;20.604;2024-02-21T07:30:45;10.20;;;7.55;;
43990;SDS011;29654;50.784;20.604;2024-02-21T07:35:48;10.82;;;7.60;;
43990;SDS011;29654;50.784;20.604;2024-02-21T07:40:51;12.57;;;7.65;;
43990;SDS011;29654;50.784;20.604;2024-02-21T07:45:55;12.77;;;7.90;;
43990;SDS011;29654;50.784;20.604;2024-02-21T07:50:58;11.13;;;8.18;;
43990;SDS011;29654;50.784;20.604;2024-02-21T07:56:01;13.35;;;8.63;;
43990;SDS011;29654;50.784;20.604;2024-02-21T08:01:06;14.55;;;8.38;;
43990;SDS011;29654;50.784;20.604;2024-02-21T08:06:11;11.38;;;8.32;;
43990;SDS011;29654;50.784;20.604;2024-02-21T08:11:14;12.25;;;8.18;;
43990;SDS011;29654;50.784;20.604;2024-02-21T08:16:18;10.05;;;7.75;;
43990;SDS011;29654;50.784;20.604;2024-02-21T08:21:22;12.23;;;7.53;;
43990;SDS011;29654;50.784;20.604;2024-02-21T08:26:25;13.63;;;8.60;;
43990;SDS011;29654;50.784;20.604;2024-02-21T08:31:32;10.68;;;7.80;;
43990;SDS011;29654;50.784;20.604;2024-02-21T08:36:35;11.05;;;7.18;;
43990;SDS011;29654;50.784;20.604;2024-02-21T08:41:38;10.65;;;7.05;;
43990;SDS011;29654;50.784;20.604;2024-02-21T08:46:42;12.23;;;6.68;;
43990;SDS011;29654;50.784;20.604;2024-02-21T08:51:45;10.25;;;6.13;;
43990;SDS011;29654;50.784;20.604;2024-02-21T08:56:48;10.23;;;6.65;;
43990;SDS011;29654;50.784;20.604;2024-02-21T09:01:52;10.63;;;7.22;;
43990;SDS011;29654;50.784;20.604;2024-02-21T09:06:55;10.85;;;7.47;;
43990;SDS011;29654;50.784;20.604;2024-02-21T09:11:57;10.32;;;6.95;;
43990;SDS011;29654;50.784;20.604;2024-02-21T09:17:07;10.00;;;6.47;;
43990;SDS011;29654;50.784;20.604;2024-02-21T09:22:10;9.00;;;6.30;;
43990;SDS011;29654;50.784;20.604;2024-02-21T09:27:13;11.07;;;6.25;;
43990;SDS011;29654;50.784;20.604;2024-02-21T09:32:17;9.00;;;6.20;;
43990;SDS011;29654;50.784;20.604;2024-02-21T09:37:20;10.07;;;5.82;;
43990;SDS011;29654;50.784;20.604;2024-02-21T09:42:25;8.23;;;5.10;;
43990;SDS011;29654;50.784;20.604;2024-02-21T09:47:42;9.30;;;5.38;;
43990;SDS011;29654;50.784;20.604;2024-02-21T09:52:59;9.50;;;4.45;;
43990;SDS011;29654;50.784;20.604;2024-02-21T09:58:03;7.22;;;3.33;;
43990;SDS011;29654;50.784;20.604;2024-02-21T10:03:08;7.30;;;3.10;;
43990;SDS011;29654;50.784;20.604;2024-02-21T10:08:13;7.25;;;3.67;;
43990;SDS011;29654;50.784;20.604;2024-02-21T10:13:24;6.90;;;3.92;;
43990;SDS011;29654;50.784;20.604;2024-02-21T10:18:29;5.15;;;3.05;;
43990;SDS011;29654;50.784;20.604;2024-02-21T10:23:42;5.03;;;3.35;;
43990;SDS011;29654;50.784;20.604;2024-02-21T10:28:46;6.30;;;3.58;;
43990;SDS011;29654;50.784;20.604;2024-02-21T10:33:57;3.75;;;3.00;;
43990;SDS011;29654;50.784;20.604;2024-02-21T10:39:03;4.95;;;3.03;;
43990;SDS011;29654;50.784;20.604;2024-02-21T10:44:07;5.00;;;2.65;;
43990;SDS011;29654;50.784;20.604;2024-02-21T10:49:14;3.67;;;2.80;;
43990;SDS011;29654;50.784;20.604;2024-02-21T10:54:39;5.55;;;2.92;;
43990;SDS011;29654;50.784;20.604;2024-02-21T10:59:47;6.43;;;3.63;;
43990;SDS011;29654;50.784;20.604;2024-02-21T11:04:52;6.97;;;3.67;;
43990;SDS011;29654;50.784;20.604;2024-02-21T11:09:56;6.70;;;3.60;;
43990;SDS011;29654;50.784;20.604;2024-02-21T11:15:03;8.05;;;4.72;;
43990;SDS011;29654;50.784;20.604;2024-02-21T11:20:12;8.45;;;4.88;;
43990;SDS011;29654;50.784;20.604;2024-02-21T11:25:21;9.70;;;6.38;;
43990;SDS011;29654;50.784;20.604;2024-02-21T11:30:26;11.73;;;5.80;;
43990;SDS011;29654;50.784;20.604;2024-02-21T11:35:33;7.20;;;5.97;;
43990;SDS011;29654;50.784;20.604;2024-02-21T11:40:38;7.55;;;4.97;;
43990;SDS011;29654;50.784;20.604;2024-02-21T11:45:42;7.43;;;5.13;;
43990;SDS011;29654;50.784;20.604;2024-02-21T11:50:53;9.55;;;5.47;;
43990;SDS011;29654;50.784;20.604;2024-02-21T11:55:56;8.05;;;5.13;;
43990;SDS011;29654;50.784;20.604;2024-02-21T12:00:59;9.25;;;5.32;;
43990;SDS011;29654;50.784;20.604;2024-02-21T12:06:04;9.65;;;5.65;;
43990;SDS011;29654;50.784;20.604;2024-02-21T12:11:15;8.25;;;5.28;;
43990;SDS011;29654;50.784;20.604;2024-02-21T12:16:23;7.60;;;5.72;;
43990;SDS011;29654;50.784;20.604;2024-02-21T12:21:29;11.70;;;5.28;;
43990;SDS011;29654;50.784;20.604;2024-02-21T12:26:33;7.25;;;5.55;;
43990;SDS011;29654;50.784;20.604;2024-02-21T12:31:36;8.20;;;4.93;;
43990;SDS011;29654;50.784;20.604;2024-02-21T12:36:42;9.00;;;5.20;;
43990;SDS011;29654;50.784;20.604;2024-02-21T12:41:47;8.80;;;4.78;;
43990;SDS011;29654;50.784;20.604;2024-02-21T12:46:50;8.40;;;5.50;;
43990;SDS011;29654;50.784;20.604;2024-02-21T12:51:56;7.90;;;4.78;;
43990;SDS011;29654;50.784;20.604;2024-02-21T12:56:58;9.40;;;5.18;;
43990;SDS011;29654;50.784;20.604;2024-02-21T13:02:03;7.38;;;4.75;;
43990;SDS011;29654;50.784;20.604;2024-02-21T13:07:08;7.47;;;4.50;;
43990;SDS011;29654;50.784;20.604;2024-02-21T13:12:10;9.75;;;5.07;;
43990;SDS011;29654;50.784;20.604;2024-02-21T13:17:14;7.82;;;4.78;;
43990;SDS011;29654;50.784;20.604;2024-02-21T13:22:18;8.88;;;5.10;;
43990;SDS011;29654;50.784;20.604;2024-02-21T13:27:22;7.63;;;4.68;;
43990;SDS011;29654;50.784;20.604;2024-02-21T13:32:26;7.32;;;3.97;;
43990;SDS011;29654;50.784;20.604;2024-02-21T13:37:31;7.80;;;3.80;;
43990;SDS011;29654;50.784;20.604;2024-02-21T13:42:35;9.27;;;4.10;;
43990;SDS011;29654;50.784;20.604;2024-02-21T13:47:38;5.80;;;3.70;;
43990;SDS011;29654;50.784;20.604;2024-02-21T13:52:42;7.07;;;4.03;;
43990;SDS011;29654;50.784;20.604;2024-02-21T13:57:45;5.97;;;3.53;;
43990;SDS011;29654;50.784;20.604;2024-02-21T14:02:48;7.15;;;4.07;;
43990;SDS011;29654;50.784;20.604;2024-02-21T14:07:52;6.22;;;4.63;;
43990;SDS011;29654;50.784;20.604;2024-02-21T14:12:55;8.15;;;4.18;;
43990;SDS011;29654;50.784;20.604;2024-02-21T14:17:58;8.02;;;4.78;;
43990;SDS011;29654;50.784;20.604;2024-02-21T14:23:03;7.80;;;5.05;;
43990;SDS011;29654;50.784;20.604;2024-02-21T14:28:07;6.20;;;4.68;;
43990;SDS011;29654;50.784;20.604;2024-02-21T14:33:10;8.23;;;5.25;;
43990;SDS011;29654;50.784;20.604;2024-02-21T14:38:15;8.00;;;5.22;;
43990;SDS011;29654;50.784;20.604;2024-02-21T14:43:18;11.25;;;5.45;;
43990;SDS011;29654;50.784;20.604;2024-02-21T14:48:21;9.57;;;5.68;;
43990;SDS011;29654;50.784;20.604;2024-02-21T14:53:27;11.48;;;6.40;;
43990;SDS011;29654;50.784;20.604;2024-02-21T14:58:31;9.93;;;6.47;;
43990;SDS011;29654;50.784;20.604;2024-02-21T15:03:33;9.45;;;6.30;;
43990;SDS011;29654;50.784;20.604;2024-02-21T15:08:38;10.90;;;6.90;;
43990;SDS011;29654;50.784;20.604;2024-02-21T15:13:41;9.57;;;6.45;;
43990;SDS011;29654;50.784;20.604;2024-02-21T15:18:44;10.20;;;6.30;;
43990;SDS011;29654;50.784;20.604;2024-02-21T15:23:49;9.60;;;6.75;;
43990;SDS011;29654;50.784;20.604;2024-02-21T15:28:52;8.98;;;6.00;;
43990;SDS011;29654;50.784;20.604;2024-02-21T15:33:54;9.38;;;5.93;;
43990;SDS011;29654;50.784;20.604;2024-02-21T15:38:59;7.97;;;5.55;;
43990;SDS011;29654;50.784;20.604;2024-02-21T15:44:03;8.10;;;5.68;;
43990;SDS011;29654;50.784;20.604;2024-02-21T15:49:06;8.80;;;5.22;;
43990;SDS011;29654;50.784;20.604;2024-02-21T15:54:10;8.88;;;5.35;;
43990;SDS011;29654;50.784;20.604;2024-02-21T15:59:13;8.45;;;5.18;;
43990;SDS011;29654;50.784;20.604;2024-02-21T16:04:16;9.10;;;5.50;;
43990;SDS011;29654;50.784;20.604;2024-02-21T16:09:20;9.20;;;5.90;;
43990;SDS011;29654;50.784;20.604;2024-02-21T16:14:23;7.60;;;5.50;;
43990;SDS011;29654;50.784;20.604;2024-02-21T16:19:28;8.45;;;5.40;;
43990;SDS011;29654;50.784;20.604;2024-02-21T16:24:32;7.25;;;5.38;;
43990;SDS011;29654;50.784;20.604;2024-02-21T16:29:36;8.95;;;5.25;;
43990;SDS011;29654;50.784;20.604;2024-02-21T16:34:40;8.63;;;5.22;;
43990;SDS011;29654;50.784;20.604;2024-02-21T16:39:44;8.75;;;5.00;;
43990;SDS011;29654;50.784;20.604;2024-02-21T16:44:47;9.23;;;5.45;;
43990;SDS011;29654;50.784;20.604;2024-02-21T16:49:51;8.00;;;5.63;;
43990;SDS011;29654;50.784;20.604;2024-02-21T16:54:55;10.35;;;5.53;;
43990;SDS011;29654;50.784;20.604;2024-02-21T16:59:58;9.35;;;6.18;;
43990;SDS011;29654;50.784;20.604;2024-02-21T17:05:05;9.98;;;5.60;;
43990;SDS011;29654;50.784;20.604;2024-02-21T17:10:11;8.55;;;5.80;;
43990;SDS011;29654;50.784;20.604;2024-02-21T17:15:13;7.75;;;5.68;;
43990;SDS011;29654;50.784;20.604;2024-02-21T17:20:17;9.30;;;5.18;;
43990;SDS011;29654;50.784;20.604;2024-02-21T17:25:21;8.05;;;5.53;;
43990;SDS011;29654;50.784;20.604;2024-02-21T17:30:24;6.72;;;5.13;;
43990;SDS011;29654;50.784;20.604;2024-02-21T17:35:26;7.72;;;4.93;;
43990;SDS011;29654;50.784;20.604;2024-02-21T17:40:31;9.52;;;5.20;;
43990;SDS011;29654;50.784;20.604;2024-02-21T17:45:34;10.15;;;5.57;;
43990;SDS011;29654;50.784;20.604;2024-02-21T17:50:36;13.38;;;5.82;;
43990;SDS011;29654;50.784;20.604;2024-02-21T17:55:41;9.48;;;6.15;;
43990;SDS011;29654;50.784;20.604;2024-02-21T18:01:12;8.65;;;6.00;;
43990;SDS011;29654;50.784;20.604;2024-02-21T18:06:16;11.50;;;7.00;;
43990;SDS011;29654;50.784;20.604;2024-02-21T18:11:20;10.57;;;6.57;;
43990;SDS011;29654;50.784;20.604;2024-02-21T18:16:23;10.45;;;5.90;;
43990;SDS011;29654;50.784;20.604;2024-02-21T18:21:28;6.68;;;5.53;;
43990;SDS011;29654;50.784;20.604;2024-02-21T18:26:32;13.10;;;7.05;;
43990;SDS011;29654;50.784;20.604;2024-02-21T18:31:35;11.93;;;6.63;;
43990;SDS011;29654;50.784;20.604;2024-02-21T18:36:38;9.32;;;6.68;;
43990;SDS011;29654;50.784;20.604;2024-02-21T18:41:48;9.93;;;6.75;;
43990;SDS011;29654;50.784;20.604;2024-02-21T18:46:52;11.38;;;7.03;;
43990;SDS011;29654;50.784;20.604;2024-02-21T18:51:57;10.50;;;7.68;;
43990;SDS011;29654;50.784;20.604;2024-02-21T18:57:01;11.80;;;7.88;;
43990;SDS011;29654;50.784;20.604;2024-02-21T19:02:05;11.65;;;8.50;;
43990;SDS011;29654;50.784;20.604;2024-02-21T19:07:07;12.93;;;8.00;;
43990;SDS011;29654;50.784;20.604;2024-02-21T19:12:12;11.60;;;8.00;;
43990;SDS011;29654;50.784;20.604;2024-02-21T19:17:17;13.45;;;8.65;;
43990;SDS011;29654;50.784;20.604;2024-02-21T19:22:20;16.35;;;8.35;;
43990;SDS011;29654;50.784;20.604;2024-02-21T19:27:26;12.15;;;8.00;;
43990;SDS011;29654;50.784;20.604;2024-02-21T19:32:29;13.25;;;7.95;;
43990;SDS011;29654;50.784;20.604;2024-02-21T19:37:32;13.23;;;8.10;;
43990;SDS011;29654;50.784;20.604;2024-02-21T19:42:38;11.15;;;7.72;;
43990;SDS011;29654;50.784;20.604;2024-02-21T19:47:42;15.55;;;8.35;;
43990;SDS011;29654;50.784;20.604;2024-02-21T19:52:45;15.23;;;8.65;;
43990;SDS011;29654;50.784;20.604;2024-02-21T19:57:50;16.48;;;8.85;;
43990;SDS011;29654;50.784;20.604;2024-02-21T20:02:53;15.50;;;10.00;;
43990;SDS011;29654;50.784;20.604;2024-02-21T20:07:56;11.00;;;9.02;;
43990;SDS011;29654;50.784;20.604;2024-02-21T20:13:00;12.63;;;9.20;;
43990;SDS011;29654;50.784;20.604;2024-02-21T20:18:05;11.35;;;8.15;;
43990;SDS011;29654;50.784;20.604;2024-02-21T20:23:08;10.70;;;7.70;;
43990;SDS011;29654;50.784;20.604;2024-02-21T20:28:16;12.35;;;9.02;;
43990;SDS011;29654;50.784;20.604;2024-02-21T20:33:20;11.68;;;8.07;;
43990;SDS011;29654;50.784;20.604;2024-02-21T20:38:25;12.93;;;8.60;;
43990;SDS011;29654;50.784;20.604;2024-02-21T20:43:30;12.95;;;8.20;;
43990;SDS011;29654;50.784;20.604;2024-02-21T20:48:32;12.23;;;7.85;;
43990;SDS011;29654;50.784;20.604;2024-02-21T20:53:35;10.35;;;7.47;;
43990;SDS011;29654;50.784;20.604;2024-02-21T20:58:40;13.95;;;9.25;;
43990;SDS011;29654;50.784;20.604;2024-02-21T21:03:43;11.55;;;9.13;;
43990;SDS011;29654;50.784;20.604;2024-02-21T21:08:46;11.50;;;7.65;;
43990;SDS011;29654;50.784;20.604;2024-02-21T21:13:50;12.30;;;8.98;;
43990;SDS011;29654;50.784;20.604;2024-02-21T21:18:53;14.93;;;10.02;;
43990;SDS011;29654;50.784;20.604;2024-02-21T21:23:56;18.10;;;10.35;;
43990;SDS011;29654;50.784;20.604;2024-02-21T21:29:00;16.23;;;10.10;;
43990;SDS011;29654;50.784;20.604;2024-02-21T21:34:04;15.45;;;9.98;;
43990;SDS011;29654;50.784;20.604;2024-02-21T21:39:07;11.05;;;8.38;;
43990;SDS011;29654;50.784;20.604;2024-02-21T21:44:11;11.30;;;9.23;;
43990;SDS011;29654;50.784;20.604;2024-02-21T21:49:15;12.73;;;9.15;;
43990;SDS011;29654;50.784;20.604;2024-02-21T21:54:18;13.18;;;9.55;;
43990;SDS011;29654;50.784;20.604;2024-02-21T21:59:23;11.35;;;8.52;;
43990;SDS011;29654;50.784;20.604;2024-02-21T22:04:26;12.48;;;8.77;;
43990;SDS011;29654;50.784;20.604;2024-02-21T22:09:30;11.57;;;9.27;;
43990;SDS011;29654;50.784;20.604;2024-02-21T22:14:34;10.40;;;7.68;;
43990;SDS011;29654;50.784;20.604;2024-02-21T22:19:37;10.95;;;8.55;;
43990;SDS011;29654;50.784;20.604;2024-02-21T22:24:40;13.00;;;8.25;;
43990;SDS011;29654;50.784;20.604;2024-02-21T22:29:46;11.65;;;8.25;;
43990;SDS011;29654;50.784;20.604;2024-02-21T22:34:49;12.15;;;8.18;;
43990;SDS011;29654;50.784;20.604;2024-02-21T22:39:52;8.80;;;7.00;;
43990;SDS011;29654;50.784;20.604;2024-02-21T22:44:57;10.40;;;6.80;;
43990;SDS011;29654;50.784;20.604;2024-02-21T22:50:00;10.50;;;7.55;;
43990;SDS011;29654;50.784;20.604;2024-02-21T22:55:03;11.38;;;7.97;;
43990;SDS011;29654;50.784;20.604;2024-02-21T23:00:10;12.32;;;9.35;;
43990;SDS011;29654;50.784;20.604;2024-02-21T23:05:16;13.52;;;10.40;;
43990;SDS011;29654;50.784;20.604;2024-02-21T23:10:19;14.65;;;10.63;;
43990;SDS011;29654;50.784;20.604;2024-02-21T23:15:25;16.13;;;11.07;;
43990;SDS011;29654;50.784;20.604;2024-02-21T23:20:29;17.85;;;11.82;;
43990;SDS011;29654;50.784;20.604;2024-02-21T23:25:32;15.15;;;12.00;;
43990;SDS011;29654;50.784;20.604;2024-02-21T23:30:36;15.30;;;11.23;;
43990;SDS011;29654;50.784;20.604;2024-02-21T23:35:39;15.52;;;11.18;;
43990;SDS011;29654;50.784;20.604;2024-02-21T23:40:42;13.82;;;10.80;;
43990;SDS011;29654;50.784;20.604;2024-02-21T23:45:46;14.80;;;10.60;;
43990;SDS011;29654;50.784;20.604;2024-02-21T23:50:49;14.18;;;11.15;;
43990;SDS011;29654;50.784;20.604;2024-02-21T23:55:52;15.73;;;11.48;;
